Aérodrome :
LOGIN :

S'inscrire | Disclaimer

   EN    FR    IT 

 










Légende :    VFR   VFR Marginal   IFR   IFR Intensif   IFR Très Intensif
Visi : 
Plafond : 
>= 8 km
>= 3000ft
5 à 8 km
1000 à 3000 ft
1500m à 5 km
500 à 1000 ft
800 à 1500m
200 à 500 ft
< 800m
< 200 ft
Symboles :   Orages  Brouillard  Fortes neiges  Fortes précipitations  Vent > 20 kt
SIGMETs :   Divers  Orages  Givrage  Turbulence  Onde Orograph.  Cendres Volcan.






- Altitude de l'aérodrome : -13 ft
- Code IATA : LEY


EHLE - Lelystad

DERNIER METAR :
  • 170055Z AUTO 23023KT 9999 NCD 08/04 Q1003

METARs EXPIRÉS :
  • 170025Z AUTO 24022KT 210V270 9999 FEW034 08/04 Q1003
  • 162355Z AUTO 24027G39KT 210V270 9999 FEW032 09/04 Q1003
  • 162325Z AUTO 24027KT 9999 FEW024 BKN030 BKN036 09/05 Q1002
  • 162255Z AUTO 23021KT 9999 SCT020 BKN023 BKN028 09/06 Q1001
  • 162225Z AUTO 23020KT 9999 SCT021 BKN025 BKN029 09/06 Q1001

TAF TAF EHLE
Valide du 17 à 00h jusqu'au 18 à 06h UTC


162317Z 1700/1806 23025G35KT 9999 SCT030
PROB30
TEMPO 1700/1710 7000 -SHRA SCT020CB
BECMG 1704/1707 22020G30KT
TEMPO 1710/1721 6000 -SHRA SCT020CB
PROB30
TEMPO 1711/1719 23025G38KT 4000 SHRAGS SCT015CB
BECMG 1715/1718 24018KT
PROB30
TEMPO 1721/1803 6000 -SHRA RA SCT020CB BKN025
BECMG 1721/1724 25020G30KT
BECMG 1803/1806 25018KT



MET'MAP, la Météo Aéronautique d'un coup d'oeil ! - Copyright ORBIFLY Décembre 2007 - Disclaimer

ORBIFLY MET'MAP TEAM :

Programmation & Développement : Alexandra Zaïnal
Sur une idée originale de : Baudouin d'Aumeries
Assistance à la programmation : Marc-Olivier Méhu
Soutien technique & logistique : Manuel Goepfert

Contact : metmap@orbifly.com




SOURCES & CREDITS :

   NOAA